Time;durP1;ratioP1;P1;durP2;ratioP2;P2;SDS_P1;SDS_P2;PMS_P1;PMS_P2;Temp;Humidity;BMP_temperature;BMP_pressure;BME280_temperature;BME280_humidity;BME280_pressure;Samples;Min_cycle;Max_cycle;Signal;HPM_P1;HPM_P2
2022/03/07 00:01:44;;;;;;;12.15;10.10;;;;;;;-0.81;74.72;102720.69;5107689;28;20027;-83
2022/03/07 00:04:14;;;;;;;12.10;9.82;;;;;;;-0.77;74.45;102731.75;5134621;27;20031;-82
2022/03/07 00:06:39;;;;;;;14.27;10.75;;;;;;;-0.95;75.46;102711.44;5090050;28;20468;-84
2022/03/07 00:09:04;;;;;;;12.13;10.90;;;;;;;-0.89;74.96;102716.50;5124324;27;20032;-82
2022/03/07 00:11:30;;;;;;;14.10;11.07;;;;;;;-0.98;75.18;102711.44;5123613;27;20523;-83
2022/03/07 00:13:56;;;;;;;13.00;10.98;;;;;;;-0.88;75.47;102726.69;5090415;28;20069;-83
2022/03/07 00:16:21;;;;;;;12.82;10.75;;;;;;;-0.97;75.74;102705.50;5102044;28;20020;-83
2022/03/07 00:18:46;;;;;;;13.15;10.88;;;;;;;-0.91;74.89;102718.22;5110330;28;20061;-82
2022/03/07 00:21:12;;;;;;;15.85;10.70;;;;;;;-0.94;75.34;102713.13;5110452;28;20055;-83
2022/03/07 00:23:38;;;;;;;13.23;11.02;;;;;;;-0.88;75.34;102720.75;5111537;28;20059;-83
2022/03/07 00:26:07;;;;;;;14.00;10.40;;;;;;;-0.82;75.39;102718.16;5111269;28;20020;-83
2022/03/07 00:28:32;;;;;;;12.70;10.40;;;;;;;-0.84;75.29;102730.91;5112796;27;20027;-84
2022/03/07 00:30:58;;;;;;;13.43;10.50;;;;;;;-0.86;74.85;102722.44;5131524;27;20027;-82
2022/03/07 00:33:24;;;;;;;12.60;10.25;;;;;;;-0.86;74.82;102724.13;5131906;27;20526;-82
2022/03/07 00:35:49;;;;;;;12.77;10.15;;;;;;;-0.84;74.66;102727.53;5124040;27;20058;-82
2022/03/07 00:38:14;;;;;;;12.57;9.90;;;;;;;-0.82;74.77;102729.19;5110829;27;20072;-83
2022/03/07 00:40:40;;;;;;;11.95;9.63;;;;;;;-0.83;74.30;102732.59;5131018;27;20023;-83
2022/03/07 00:43:07;;;;;;;13.27;9.73;;;;;;;-0.85;74.02;102725.84;5131518;27;20547;-83
2022/03/07 00:45:33;;;;;;;12.05;9.68;;;;;;;-0.95;74.34;102711.44;5107083;27;20512;-83
2022/03/07 00:47:58;;;;;;;11.52;9.90;;;;;;;-0.89;73.94;102731.78;5130018;27;20027;-83
2022/03/07 00:50:24;;;;;;;12.73;9.75;;;;;;;-0.95;74.31;102734.34;5111174;27;20122;-83
2022/03/07 00:52:49;;;;;;;13.00;9.45;;;;;;;-0.89;74.40;102731.78;5111945;27;20114;-83
2022/03/07 00:55:14;;;;;;;14.13;10.10;;;;;;;-0.93;74.28;102735.19;5109195;28;20034;-83
2022/03/07 00:57:40;;;;;;;12.00;9.70;;;;;;;-0.93;74.38;102740.28;5127189;27;20050;-83
2022/03/07 01:00:06;;;;;;;12.50;9.70;;;;;;;-1.00;74.00;102733.53;5117296;27;20059;-83
2022/03/07 01:02:32;;;;;;;12.95;9.88;;;;;;;-1.07;74.34;102723.34;5109221;28;20062;-83
2022/03/07 01:04:57;;;;;;;11.63;9.20;;;;;;;-0.98;74.41;102740.28;5109519;28;20424;-83
2022/03/07 01:07:22;;;;;;;12.68;10.10;;;;;;;-1.09;73.94;102735.25;5110807;28;20043;-83
2022/03/07 01:09:48;;;;;;;12.27;9.50;;;;;;;-1.19;74.31;102722.53;5110886;28;20030;-83
2022/03/07 01:12:13;;;;;;;12.70;9.80;;;;;;;-1.22;74.79;102722.53;5111057;28;20035;-83
2022/03/07 01:14:39;;;;;;;11.85;10.00;;;;;;;-1.22;75.10;102733.56;5101285;28;20402;-83
2022/03/07 01:17:05;;;;;;;12.43;10.80;;;;;;;-1.26;75.02;102737.00;5109020;28;20028;-83
2022/03/07 01:19:30;;;;;;;11.73;10.18;;;;;;;-1.34;75.23;102733.59;5109163;28;20027;-83
2022/03/07 01:21:55;;;;;;;13.73;10.43;;;;;;;-1.34;75.22;102728.50;5114784;27;20059;-83
2022/03/07 01:24:21;;;;;;;13.25;11.02;;;;;;;-1.30;75.39;102740.38;5129226;27;20039;-83
2022/03/07 01:26:47;;;;;;;13.43;10.75;;;;;;;-1.46;75.62;102715.78;5131100;27;20126;-83
2022/03/07 01:29:12;;;;;;;13.07;10.82;;;;;;;-1.34;75.88;102741.22;5129514;27;20025;-83
2022/03/07 01:31:38;;;;;;;12.18;9.98;;;;;;;-1.37;75.83;102736.16;5113345;27;20326;-83
2022/03/07 01:34:03;;;;;;;13.32;10.95;;;;;;;-1.35;75.89;102732.75;5112467;27;20095;-82
2022/03/07 01:36:28;;;;;;;14.32;11.98;;;;;;;-1.34;76.12;102754.78;5117780;27;20516;-83
2022/03/07 01:38:54;;;;;;;14.23;11.27;;;;;;;-1.40;76.87;102743.78;5111380;27;20023;-83
2022/03/07 01:41:19;;;;;;;12.45;11.15;;;;;;;-1.44;76.53;102739.53;5108492;28;20441;-82
2022/03/07 01:43:45;;;;;;;13.85;10.73;;;;;;;-1.36;76.90;102750.56;5111141;27;20029;-82
2022/03/07 01:46:10;;;;;;;13.07;10.88;;;;;;;-1.39;76.66;102735.28;5109955;28;20036;-82
2022/03/07 01:48:36;;;;;;;11.65;10.20;;;;;;;-1.31;76.47;102743.78;5109836;27;20028;-82
2022/03/07 01:51:02;;;;;;;14.50;10.80;;;;;;;-1.37;76.95;102733.59;5128516;27;20031;-82
2022/03/07 01:53:27;;;;;;;15.00;11.05;;;;;;;-1.37;76.93;102733.59;5112277;27;20471;-82
2022/03/07 01:55:55;;;;;;;12.38;10.65;;;;;;;-1.33;77.02;102735.28;5126747;27;20389;-81
2022/03/07 01:58:21;;;;;;;14.55;11.32;;;;;;;-1.35;76.51;102729.34;5115104;27;20039;-81
2022/03/07 02:00:47;;;;;;;13.88;11.15;;;;;;;-1.33;76.75;102731.03;5126867;27;20218;-81
2022/03/07 02:03:13;;;;;;;13.18;11.15;;;;;;;-1.35;76.76;102729.34;5128649;27;20125;-82
2022/03/07 02:05:42;;;;;;;11.95;10.65;;;;;;;-1.37;76.13;102729.38;5129719;27;20103;-82
2022/03/07 02:08:08;;;;;;;13.20;10.85;;;;;;;-1.33;76.56;102740.38;5120582;27;20163;-82
2022/03/07 02:10:33;;;;;;;13.57;11.00;;;;;;;-1.41;76.33;102716.63;5141412;27;20024;-83
2022/03/07 02:12:59;;;;;;;13.25;10.68;;;;;;;-1.34;76.34;102733.59;5109900;28;20471;-82
2022/03/07 02:15:24;;;;;;;16.45;11.18;;;;;;;-1.39;76.77;102731.03;5107747;28;20023;-83
2022/03/07 02:17:50;;;;;;;11.93;10.55;;;;;;;-1.36;76.38;102725.13;5116991;27;20023;-83
2022/03/07 02:20:15;;;;;;;14.18;10.73;;;;;;;-1.42;76.06;102720.03;5126243;27;20423;-83
2022/03/07 02:22:41;;;;;;;13.25;10.98;;;;;;;-1.40;76.73;102731.91;5108003;28;20026;-82
2022/03/07 02:25:07;;;;;;;12.68;11.30;;;;;;;-1.45;76.96;102725.13;5107812;28;20134;-82
2022/03/07 02:27:33;;;;;;;13.18;11.50;;;;;;;-1.53;77.19;102716.66;5108864;28;20043;-82
2022/03/07 02:30:05;;;;;;;13.65;11.50;;;;;;;-1.49;77.12;102725.97;5107847;28;20491;-82
2022/03/07 02:32:31;;;;;;;15.05;11.52;;;;;;;-1.51;76.77;102704.78;5107511;28;20039;-82
2022/03/07 02:34:56;;;;;;;13.55;11.35;;;;;;;-1.51;76.84;102715.78;5107914;28;20027;-82
2022/03/07 02:37:21;;;;;;;13.13;11.20;;;;;;;-1.50;76.93;102721.72;5108628;28;20040;-82
2022/03/07 02:39:47;;;;;;;14.88;12.65;;;;;;;-1.55;77.50;102723.41;5107153;28;20148;-83
2022/03/07 02:42:12;;;;;;;14.25;11.48;;;;;;;-1.62;77.22;102712.41;5108587;28;20456;-82
2022/03/07 02:44:39;;;;;;;14.23;11.55;;;;;;;-1.52;76.98;102723.44;5101521;27;20027;-82
2022/03/07 02:47:04;;;;;;;14.20;11.20;;;;;;;-1.58;77.34;102719.19;5107569;28;20352;-82
2022/03/07 02:49:30;;;;;;;13.20;11.80;;;;;;;-1.51;77.42;102727.66;5106664;28;20051;-83
2022/03/07 02:51:56;;;;;;;13.85;11.50;;;;;;;-1.61;76.78;102714.09;5108954;28;20019;-82
2022/03/07 02:54:21;;;;;;;13.90;11.60;;;;;;;-1.59;77.09;102711.56;5108406;27;20031;-82
2022/03/07 02:56:47;;;;;;;12.93;11.05;;;;;;;-1.59;76.61;102717.50;5107845;27;20019;-82
2022/03/07 02:59:13;;;;;;;13.13;11.57;;;;;;;-1.56;77.35;102719.19;5108351;28;20456;-82
2022/03/07 03:01:43;;;;;;;14.02;12.35;;;;;;;-1.59;77.34;102711.56;5110846;27;20080;-83
2022/03/07 03:04:09;;;;;;;15.00;12.52;;;;;;;-1.49;76.90;102718.31;5109405;27;20069;-82
2022/03/07 03:06:34;;;;;;;14.10;11.88;;;;;;;-1.54;76.97;102709.88;5129228;27;20023;-82
2022/03/07 03:09:00;;;;;;;14.38;11.70;;;;;;;-1.54;76.50;102699.69;5122837;27;20080;-82
2022/03/07 03:11:25;;;;;;;15.48;11.85;;;;;;;-1.50;76.37;102716.63;5108592;28;20570;-83
2022/03/07 03:13:50;;;;;;;14.40;11.55;;;;;;;-1.56;77.05;102712.41;5108588;28;20040;-82
2022/03/07 03:16:18;;;;;;;13.55;11.45;;;;;;;-1.57;76.64;102712.41;5088926;28;20512;-83
2022/03/07 03:18:46;;;;;;;13.95;11.48;;;;;;;-1.59;76.93;102706.47;5090889;27;20050;-82
2022/03/07 03:21:11;;;;;;;12.60;10.88;;;;;;;-1.65;76.70;102703.09;5106872;28;20422;-83
2022/03/07 03:23:37;;;;;;;15.20;12.07;;;;;;;-1.66;77.36;102716.66;5107847;27;20073;-82
2022/03/07 03:26:03;;;;;;;14.77;11.70;;;;;;;-1.72;77.46;102713.25;5124723;27;20394;-82
2022/03/07 03:28:28;;;;;;;15.68;12.40;;;;;;;-1.70;77.80;102722.59;5117401;27;20027;-82
2022/03/07 03:30:54;;;;;;;14.13;11.73;;;;;;;-1.77;77.69;102708.19;5121587;27;20371;-82
2022/03/07 03:33:19;;;;;;;14.13;11.65;;;;;;;-1.75;77.52;102706.47;5124923;28;20035;-82
2022/03/07 03:35:44;;;;;;;15.48;12.23;;;;;;;-1.77;77.91;102713.28;5128077;27;20051;-82
2022/03/07 03:38:10;;;;;;;14.00;11.82;;;;;;;-1.71;77.53;102718.38;5108773;27;20076;-82
2022/03/07 03:40:37;;;;;;;15.93;12.77;;;;;;;-1.72;77.72;102725.97;5123124;28;20504;-81
2022/03/07 03:43:02;;;;;;;14.65;12.88;;;;;;;-1.75;77.83;102715.81;5120728;27;20080;-82
2022/03/07 03:45:28;;;;;;;14.45;12.27;;;;;;;-1.82;77.73;102702.25;5107918;28;20459;-82
2022/03/07 03:47:53;;;;;;;14.95;12.07;;;;;;;-1.81;78.06;102709.03;5140416;27;20122;-82
2022/03/07 03:50:19;;;;;;;14.38;12.63;;;;;;;-1.85;77.93;102699.69;5108453;28;20470;-83
2022/03/07 03:52:44;;;;;;;16.50;13.25;;;;;;;-1.84;77.95;102706.47;5140720;27;20178;-83
2022/03/07 03:55:11;;;;;;;15.00;12.13;;;;;;;-1.79;78.10;102714.94;5114915;28;20193;-82
2022/03/07 03:57:40;;;;;;;16.60;12.52;;;;;;;-1.83;78.20;102715.81;5108618;28;20031;-82
2022/03/07 04:00:12;;;;;;;15.43;13.02;;;;;;;-1.84;78.19;102714.09;5107264;28;20031;-82
2022/03/07 04:02:38;;;;;;;16.10;12.95;;;;;;;-1.84;77.53;102710.72;5120027;28;20479;-82
2022/03/07 04:05:07;;;;;;;15.50;13.20;;;;;;;-1.88;78.23;102705.63;5111323;28;20031;-81
2022/03/07 04:07:32;;;;;;;15.90;12.70;;;;;;;-1.91;77.82;102704.78;5106872;28;20027;-82
2022/03/07 04:09:58;;;;;;;16.70;13.68;;;;;;;-1.88;77.83;102712.44;5119260;27;20381;-82
2022/03/07 04:12:23;;;;;;;15.85;13.02;;;;;;;-1.89;77.63;102709.03;5114748;27;20063;-83
2022/03/07 04:14:48;;;;;;;16.20;13.95;;;;;;;-1.87;78.13;102706.50;5109457;28;20023;-82
2022/03/07 04:17:14;;;;;;;15.50;13.20;;;;;;;-1.81;77.54;102711.56;5106838;28;20412;-82
2022/03/07 04:19:39;;;;;;;16.13;13.48;;;;;;;-1.80;77.51;102708.19;5108231;28;20482;-82
2022/03/07 04:22:05;;;;;;;16.60;13.65;;;;;;;-1.85;78.57;102720.03;5114814;28;20023;-82
2022/03/07 04:24:32;;;;;;;17.35;14.43;;;;;;;-1.89;77.96;102705.66;5113976;27;20050;-83
2022/03/07 04:26:58;;;;;;;16.08;13.77;;;;;;;-1.81;78.17;102716.66;5107105;28;20036;-82
2022/03/07 04:29:28;;;;;;;16.17;13.45;;;;;;;-1.84;77.99;102726.81;5107417;28;20056;-82
2022/03/07 04:31:54;;;;;;;18.52;14.10;;;;;;;-1.80;78.05;102725.97;5108087;28;20043;-82
2022/03/07 04:34:19;;;;;;;17.73;14.25;;;;;;;-1.80;78.05;102723.44;5109034;28;20031;-82
2022/03/07 04:36:44;;;;;;;17.27;14.63;;;;;;;-1.76;78.20;102734.47;5107365;28;20428;-82
2022/03/07 04:39:10;;;;;;;17.63;14.77;;;;;;;-1.76;78.41;102724.28;5110069;28;20463;-82
2022/03/07 04:41:37;;;;;;;16.15;13.93;;;;;;;-1.76;78.32;102719.22;5119016;28;20402;-82
2022/03/07 04:44:03;;;;;;;18.23;14.65;;;;;;;-1.78;78.09;102719.19;5127045;28;20034;-82
2022/03/07 04:46:29;;;;;;;19.17;15.15;;;;;;;-1.81;78.65;102711.56;5110604;28;20019;-82
2022/03/07 04:48:54;;;;;;;16.33;14.55;;;;;;;-1.75;78.27;102706.47;5088440;28;20475;-82
2022/03/07 04:51:19;;;;;;;18.13;15.50;;;;;;;-1.71;78.30;102727.69;5104579;28;20035;-82
2022/03/07 04:53:45;;;;;;;19.52;15.40;;;;;;;-1.75;78.84;102724.28;5097738;27;20035;-83
2022/03/07 04:56:13;;;;;;;18.73;15.05;;;;;;;-1.79;78.49;102717.50;5107430;27;20053;-82
2022/03/07 04:58:39;;;;;;;19.35;15.35;;;;;;;-1.81;78.50;102709.03;5124904;27;20352;-83
2022/03/07 05:01:05;;;;;;;18.02;15.68;;;;;;;-1.76;78.57;102721.75;5119516;27;20020;-82
2022/03/07 05:03:30;;;;;;;18.88;15.50;;;;;;;-1.74;78.02;102723.44;5101829;27;20514;-83
2022/03/07 05:05:56;;;;;;;17.55;15.35;;;;;;;-1.79;78.17;102720.03;5093025;27;20061;-82
2022/03/07 05:08:21;;;;;;;17.08;15.25;;;;;;;-1.81;78.28;102721.75;5107274;27;20364;-82
2022/03/07 05:10:48;;;;;;;17.38;15.55;;;;;;;-1.84;77.83;102703.94;5090003;28;20055;-83
2022/03/07 05:13:14;;;;;;;19.08;15.65;;;;;;;-1.80;77.62;102718.34;5089509;28;20023;-82
2022/03/07 05:15:44;;;;;;;17.75;15.45;;;;;;;-1.84;77.83;102706.47;5105428;27;20365;-82
2022/03/07 05:18:10;;;;;;;18.65;16.40;;;;;;;-1.83;78.50;102703.09;5127922;27;20039;-82
2022/03/07 05:20:38;;;;;;;19.30;16.60;;;;;;;-1.87;77.97;102698.84;5113063;28;20019;-82
2022/03/07 05:23:06;;;;;;;17.30;15.50;;;;;;;-1.87;78.36;102711.56;5113595;28;20050;-82
2022/03/07 05:25:31;;;;;;;20.88;15.68;;;;;;;-1.87;78.03;102717.50;5110745;27;20039;-82
2022/03/07 05:27:58;;;;;;;18.38;15.57;;;;;;;-1.86;77.93;102720.91;5120683;27;20398;-82
2022/03/07 05:30:28;;;;;;;18.65;16.42;;;;;;;-1.92;78.36;102705.63;5124783;27;20039;-82
2022/03/07 05:33:01;;;;;;;20.15;16.27;;;;;;;-1.90;78.33;102702.22;5106616;27;20024;-83
2022/03/07 05:35:28;;;;;;;18.90;16.52;;;;;;;-1.85;78.19;102704.78;5102386;28;20322;-82
2022/03/07 05:37:53;;;;;;;19.45;15.98;;;;;;;-1.81;78.03;102711.56;5116417;27;20031;-83
2022/03/07 05:40:19;;;;;;;18.85;16.83;;;;;;;-1.84;78.00;102706.47;5128669;27;20041;-84
2022/03/07 05:42:48;;;;;;;22.17;19.52;;;;;;;-1.75;78.56;102716.66;5132678;27;20446;-84
2022/03/07 05:45:13;;;;;;;;;;;;;;;-1.66;78.04;102720.91;5129634;27;20051;-84
2022/03/07 05:47:40;;;;;;;18.92;16.15;;;;;;;-1.91;77.66;102723.44;5123863;27;19941;-83
2022/03/07 05:50:08;;;;;;;22.17;16.67;;;;;;;-1.91;77.86;102730.22;5109957;28;20031;-83
2022/03/07 05:52:37;;;;;;;17.75;15.85;;;;;;;-1.93;77.78;102731.91;5105444;27;20119;-83
2022/03/07 05:55:07;;;;;;;20.05;16.77;;;;;;;-2.09;78.52;102718.31;5089539;28;20459;-84
2022/03/07 05:57:35;;;;;;;19.08;16.13;;;;;;;-2.05;78.09;102734.44;5098548;27;20049;-83
2022/03/07 06:00:04;;;;;;;21.02;17.65;;;;;;;-2.09;78.41;102745.44;5114427;27;20071;-85
2022/03/07 06:02:30;;;;;;;20.95;17.55;;;;;;;-2.27;78.80;102721.69;5132553;27;20068;-84
2022/03/07 06:04:58;;;;;;;19.33;16.83;;;;;;;-2.49;78.30;102689.44;5118720;27;20024;-83
2022/03/07 06:07:29;;;;;;;19.98;17.70;;;;;;;-2.29;78.53;102728.47;5115098;27;20027;-82
2022/03/07 06:09:54;;;;;;;20.25;16.65;;;;;;;-2.28;78.12;102725.09;5129008;27;20390;-82
2022/03/07 06:12:21;;;;;;;20.88;17.02;;;;;;;-2.18;78.57;102744.59;5116416;27;20799;-83
2022/03/07 06:14:46;;;;;;;21.50;17.60;;;;;;;-2.31;78.46;102719.13;5109033;27;20020;-83
2022/03/07 06:17:11;;;;;;;19.73;16.95;;;;;;;-2.18;78.32;102747.13;5108092;27;20085;-83
2022/03/07 06:19:37;;;;;;;20.75;17.27;;;;;;;-2.10;78.23;102756.47;5109338;28;20478;-84
2022/03/07 06:22:02;;;;;;;22.98;17.98;;;;;;;-2.17;78.34;102758.16;5115555;27;20470;-83
2022/03/07 06:24:29;;;;;;;22.50;18.13;;;;;;;-2.25;79.01;102750.50;5115322;27;20056;-84
2022/03/07 06:26:56;;;;;;;20.98;17.88;;;;;;;-2.17;79.22;102771.72;5107773;28;20023;-82
2022/03/07 06:29:21;;;;;;;21.83;18.15;;;;;;;-2.15;79.44;102767.47;5107255;28;20488;-82
2022/03/07 06:31:47;;;;;;;20.77;18.20;;;;;;;-2.19;78.69;102765.75;5109081;28;20102;-83
2022/03/07 06:34:12;;;;;;;21.13;18.52;;;;;;;-2.19;78.58;102759.81;5107865;28;20059;-83
2022/03/07 06:36:39;;;;;;;21.95;18.40;;;;;;;-2.15;78.79;102764.94;5108976;28;20047;-83
2022/03/07 06:39:05;;;;;;;22.70;18.27;;;;;;;-2.19;79.32;102760.66;5108323;28;20368;-83
2022/03/07 06:41:31;;;;;;;21.75;18.55;;;;;;;-2.19;79.48;102754.75;5108257;28;20035;-83
2022/03/07 06:43:56;;;;;;;24.60;19.08;;;;;;;-2.19;79.10;102757.28;5107858;28;20039;-83
2022/03/07 06:46:22;;;;;;;20.58;18.25;;;;;;;-2.11;78.91;102767.50;5109157;28;20528;-83
2022/03/07 06:48:47;;;;;;;21.75;18.17;;;;;;;-2.17;79.26;102758.16;5108629;28;20040;-83
2022/03/07 06:51:12;;;;;;;23.65;18.88;;;;;;;-2.14;79.30;102759.00;5115781;27;20023;-83
2022/03/07 06:53:37;;;;;;;22.98;18.27;;;;;;;-2.10;79.76;102766.63;5108772;28;20043;-83
2022/03/07 06:56:03;;;;;;;21.92;18.73;;;;;;;-2.13;79.59;102770.84;5105236;27;20158;-83
2022/03/07 06:58:28;;;;;;;24.27;19.25;;;;;;;-2.08;79.07;102762.41;5098376;27;20039;-82
2022/03/07 07:00:54;;;;;;;21.02;18.08;;;;;;;-1.97;79.29;102781.06;5106883;28;20047;-83
2022/03/07 07:03:19;;;;;;;22.05;18.92;;;;;;;-1.96;79.66;102777.66;5096153;28;20068;-83
2022/03/07 07:05:44;;;;;;;21.45;19.20;;;;;;;-2.01;79.84;102753.91;5094933;27;20059;-84
2022/03/07 07:08:11;;;;;;;21.67;19.30;;;;;;;-1.90;79.41;102777.69;5092274;27;20391;-82
2022/03/07 07:10:36;;;;;;;24.17;18.85;;;;;;;-1.96;79.45;102752.25;5090986;27;20038;-81
2022/03/07 07:13:01;;;;;;;23.88;18.92;;;;;;;-1.87;79.46;102772.59;5105137;27;20032;-82
2022/03/07 07:15:27;;;;;;;22.73;18.95;;;;;;;-1.88;79.49;102770.91;5092715;28;20022;-82
2022/03/07 07:17:52;;;;;;;21.95;19.42;;;;;;;-1.89;79.79;102764.97;5098819;27;20118;-83
2022/03/07 07:20:17;;;;;;;22.90;18.73;;;;;;;-1.81;79.89;102757.34;5090018;28;20027;-82
2022/03/07 07:22:43;;;;;;;22.30;18.58;;;;;;;-1.80;79.96;102758.19;5089519;28;20031;-84
2022/03/07 07:25:10;;;;;;;21.40;19.10;;;;;;;-1.70;79.50;102775.16;5089419;28;20415;-82
2022/03/07 07:27:35;;;;;;;21.13;18.83;;;;;;;-1.71;79.64;102769.25;5092108;28;20066;-83
2022/03/07 07:30:01;;;;;;;22.17;19.48;;;;;;;-1.68;79.26;102764.13;5106956;28;20078;-83
2022/03/07 07:32:28;;;;;;;21.05;18.88;;;;;;;-1.58;79.53;102774.31;5120402;27;20023;-82
2022/03/07 07:34:53;;;;;;;22.63;18.67;;;;;;;-1.58;79.27;102770.09;5126433;28;20502;-83
2022/03/07 07:37:18;;;;;;;21.60;19.30;;;;;;;-1.53;79.26;102765.84;5120484;27;20039;-82
2022/03/07 07:39:44;;;;;;;22.52;20.00;;;;;;;-1.57;79.02;102750.56;5102724;28;20115;-82
2022/03/07 07:42:09;;;;;;;22.30;19.83;;;;;;;-1.43;78.96;102772.63;5096452;28;20393;-82
2022/03/07 07:44:35;;;;;;;23.80;20.48;;;;;;;-1.35;78.88;102772.63;5093571;28;20371;-83
2022/03/07 07:47:01;;;;;;;26.27;20.52;;;;;;;-1.32;79.29;102764.97;5095553;28;20024;-82
2022/03/07 07:49:27;;;;;;;22.38;19.77;;;;;;;-1.28;79.23;102769.22;5096492;28;20032;-83
2022/03/07 07:51:52;;;;;;;21.33;19.08;;;;;;;-1.21;79.45;102775.97;5090633;28;20036;-82
2022/03/07 07:54:18;;;;;;;23.52;20.10;;;;;;;-1.13;78.38;102776.84;5114261;28;20397;-82
2022/03/07 07:56:43;;;;;;;22.88;20.38;;;;;;;-1.16;79.14;102759.00;5105693;27;20031;-82
2022/03/07 07:59:11;;;;;;;22.40;19.98;;;;;;;-1.03;78.86;102776.81;5102759;27;20054;-82
2022/03/07 08:01:36;;;;;;;23.67;19.95;;;;;;;-1.03;78.39;102769.16;5107877;28;20031;-82
2022/03/07 08:04:02;;;;;;;24.23;20.17;;;;;;;-0.89;78.60;102770.00;5120957;28;20111;-82
2022/03/07 08:06:27;;;;;;;24.42;20.75;;;;;;;-0.87;78.79;102761.47;5112737;28;20031;-82
2022/03/07 08:08:52;;;;;;;26.35;20.77;;;;;;;-0.84;78.02;102755.53;5126052;28;20114;-82
2022/03/07 08:11:18;;;;;;;23.50;20.65;;;;;;;-0.77;78.46;102762.31;5127943;28;20463;-80
2022/03/07 08:13:43;;;;;;;27.50;21.42;;;;;;;-0.64;78.52;102784.34;5101519;27;20029;-82
2022/03/07 08:16:09;;;;;;;31.67;21.35;;;;;;;-0.59;78.13;102782.63;5106956;28;20023;-82
2022/03/07 08:18:34;;;;;;;26.10;21.20;;;;;;;-0.50;77.94;102791.09;5108038;28;20064;-82
2022/03/07 08:21:00;;;;;;;23.60;21.10;;;;;;;-0.44;77.80;102788.53;5106640;28;20118;-82
2022/03/07 08:23:26;;;;;;;22.83;20.42;;;;;;;-0.36;78.23;102789.34;5118928;27;20031;-82
2022/03/07 08:25:52;;;;;;;23.73;19.80;;;;;;;-0.31;78.21;102790.16;5102768;28;20020;-82
2022/03/07 08:28:17;;;;;;;24.15;20.05;;;;;;;-0.24;77.76;102789.25;5101066;27;20035;-82
2022/03/07 08:30:43;;;;;;;24.13;19.88;;;;;;;-0.19;77.50;102785.00;5098451;28;20036;-81
2022/03/07 08:33:08;;;;;;;24.20;20.02;;;;;;;-0.14;77.90;102774.78;5097641;28;20074;-82
2022/03/07 08:35:33;;;;;;;24.05;19.48;;;;;;;-0.07;77.16;102787.47;5099044;27;20059;-82
2022/03/07 08:37:59;;;;;;;22.80;18.92;;;;;;;0.02;76.44;102783.19;5102427;27;20055;-82
2022/03/07 08:40:25;;;;;;;20.60;18.25;;;;;;;0.05;76.11;102778.91;5099917;28;20028;-82
2022/03/07 08:42:51;;;;;;;21.20;18.90;;;;;;;0.10;75.90;102781.44;5098204;28;20023;-82
2022/03/07 08:45:17;;;;;;;21.98;18.77;;;;;;;0.19;76.10;102778.81;5105304;28;20020;-82
2022/03/07 08:47:42;;;;;;;21.52;18.95;;;;;;;0.27;75.74;102787.25;5100222;28;20043;-82
2022/03/07 08:50:10;;;;;;;19.67;17.55;;;;;;;0.41;75.51;102790.56;5090231;28;20266;-82
2022/03/07 08:52:36;;;;;;;19.73;17.23;;;;;;;0.47;75.35;102784.56;5092057;27;20065;-82
2022/03/07 08:55:03;;;;;;;20.73;17.45;;;;;;;0.57;74.62;102798.09;5092152;28;20762;-82
2022/03/07 08:57:28;;;;;;;19.73;17.63;;;;;;;0.63;74.05;102777.59;5094677;27;20044;-82
2022/03/07 08:59:54;;;;;;;22.27;18.00;;;;;;;0.71;74.27;102783.50;5093329;27;20374;-82
2022/03/07 09:02:19;;;;;;;20.00;17.77;;;;;;;0.74;74.24;102773.25;5093689;27;20084;-82
2022/03/07 09:04:45;;;;;;;19.80;17.67;;;;;;;0.83;73.20;102772.34;5092102;28;20035;-83
2022/03/07 09:07:10;;;;;;;18.40;16.10;;;;;;;0.91;72.88;102775.66;5104686;27;20026;-82
2022/03/07 09:09:35;;;;;;;17.20;15.40;;;;;;;0.99;72.08;102790.06;5095049;27;20028;-81
2022/03/07 09:12:03;;;;;;;19.42;16.45;;;;;;;1.11;72.76;102773.75;5099260;27;20461;-82
2022/03/07 09:14:29;;;;;;;18.33;15.53;;;;;;;1.26;71.56;102782.94;5098131;27;20032;-81
2022/03/07 09:16:57;;;;;;;19.13;15.68;;;;;;;1.31;70.97;102781.16;5098311;28;20038;-81
2022/03/07 09:19:23;;;;;;;18.40;15.57;;;;;;;1.39;71.53;102774.28;5098189;27;20054;-82
2022/03/07 09:21:48;;;;;;;17.42;14.20;;;;;;;1.47;69.45;102774.16;5094667;28;20463;-82
2022/03/07 09:24:14;;;;;;;16.20;14.38;;;;;;;1.49;69.60;102769.88;5097505;28;20395;-82
2022/03/07 09:26:39;;;;;;;18.30;14.90;;;;;;;1.57;70.44;102763.81;5095419;28;20031;-82
2022/03/07 09:29:04;;;;;;;18.05;14.25;;;;;;;1.64;69.22;102768.84;5099269;27;20020;-81
2022/03/07 09:31:30;;;;;;;15.85;13.55;;;;;;;1.74;68.73;102770.41;5096065;28;20480;-82
2022/03/07 09:33:56;;;;;;;17.42;14.13;;;;;;;1.78;69.21;102752.47;5096863;28;20040;-82
2022/03/07 09:36:22;;;;;;;14.27;11.48;;;;;;;1.89;67.46;102757.41;5097927;28;20028;-82
2022/03/07 09:38:50;;;;;;;14.30;11.25;;;;;;;1.99;66.25;102753.00;5110234;27;20049;-81
2022/03/07 09:41:15;;;;;;;12.98;11.15;;;;;;;2.11;65.53;102761.34;5129116;27;20502;-80
2022/03/07 09:43:41;;;;;;;15.10;11.65;;;;;;;2.17;66.08;102765.50;5115075;27;20031;-81
2022/03/07 09:46:06;;;;;;;12.18;10.85;;;;;;;2.22;65.45;102757.78;5094429;28;20475;-82
2022/03/07 09:48:31;;;;;;;12.57;10.75;;;;;;;2.31;64.79;102763.59;5093306;28;20537;-81
2022/03/07 09:50:58;;;;;;;10.85;9.73;;;;;;;2.35;64.01;102769.50;5095398;27;20065;-81
2022/03/07 09:53:23;;;;;;;12.63;10.00;;;;;;;2.44;63.79;102763.41;5093476;28;20422;-81
2022/03/07 09:55:49;;;;;;;12.15;9.88;;;;;;;2.50;63.45;102764.13;5093681;28;20028;-82
2022/03/07 09:58:15;;;;;;;12.57;8.82;;;;;;;2.58;62.62;102767.44;5092118;27;20378;-80
2022/03/07 10:00:41;;;;;;;12.40;9.70;;;;;;;2.63;63.12;102755.34;5106212;28;20046;-80
2022/03/07 10:03:09;;;;;;;11.20;8.70;;;;;;;2.73;63.18;102747.53;5109222;28;20024;-80
2022/03/07 10:05:38;;;;;;;10.77;8.13;;;;;;;2.87;62.21;102763.50;5099059;28;20028;-80
2022/03/07 10:08:06;;;;;;;9.35;7.97;;;;;;;2.97;61.68;102757.31;5089324;28;20058;-81
2022/03/07 10:10:35;;;;;;;10.13;7.30;;;;;;;2.98;59.99;102741.06;5100503;28;20042;-81
2022/03/07 10:13:12;;;;;;;9.50;6.68;;;;;;;3.08;60.48;102745.13;5109475;28;20305;-81
2022/03/07 10:15:39;;;;;;;9.38;6.43;;;;;;;3.05;58.46;102732.41;5109049;28;20023;-81
2022/03/07 10:18:05;;;;;;;9.15;6.65;;;;;;;3.14;58.71;102734.75;5108107;28;20517;-81
2022/03/07 10:20:31;;;;;;;9.68;6.10;;;;;;;3.25;58.90;102738.84;5096469;28;20107;-81
2022/03/07 10:23:00;;;;;;;8.55;5.80;;;;;;;3.25;57.30;102742.25;5088967;28;20142;-81
2022/03/07 10:25:28;;;;;;;8.27;5.72;;;;;;;3.34;58.34;102738.66;5088888;28;20044;-81
2022/03/07 10:27:54;;;;;;;8.23;5.55;;;;;;;3.24;57.15;102716.63;5095818;28;20028;-80
2022/03/07 10:30:23;;;;;;;7.50;5.93;;;;;;;3.35;57.11;102724.97;5108703;28;20039;-81
2022/03/07 10:33:07;;;;;;;9.10;6.35;;;;;;;3.40;58.47;102720.56;5109084;27;20028;-80
2022/03/07 10:35:35;;;;;;;11.32;5.95;;;;;;;3.39;56.04;102716.31;5092224;27;20027;-81
2022/03/07 10:38:04;;;;;;;8.65;5.05;;;;;;;3.40;56.62;102707.75;5095490;28;20028;-81
2022/03/07 10:40:32;;;;;;;8.05;5.90;;;;;;;3.50;56.33;102713.50;5088593;28;20020;-81
2022/03/07 10:43:04;;;;;;;8.52;6.18;;;;;;;3.56;55.95;102714.25;5097753;27;20028;-81
2022/03/07 10:45:30;;;;;;;9.43;6.10;;;;;;;3.53;57.03;102704.03;5096593;27;20046;-81
2022/03/07 10:47:59;;;;;;;9.98;6.57;;;;;;;3.65;56.65;102708.06;5093454;27;20035;-80
2022/03/07 10:50:26;;;;;;;8.60;6.30;;;;;;;3.67;56.55;102699.44;5088827;28;20028;-80
2022/03/07 10:53:02;;;;;;;9.48;6.80;;;;;;;3.72;56.77;102700.16;5094983;28;20034;-80
2022/03/07 10:55:29;;;;;;;10.18;6.93;;;;;;;3.87;58.14;102698.13;5087145;28;20569;-81
2022/03/07 10:58:08;;;;;;;10.32;7.20;;;;;;;3.91;57.25;102692.06;5089908;28;20053;-81
2022/03/07 11:00:45;;;;;;;8.60;7.20;;;;;;;3.91;55.76;102674.09;5105303;28;20538;-81
2022/03/07 11:03:21;;;;;;;8.75;7.70;;;;;;;4.01;56.65;102675.53;5107574;28;20046;-80
2022/03/07 11:05:47;;;;;;;9.25;7.38;;;;;;;4.02;57.43;102671.28;5108299;28;20110;-81
2022/03/07 11:08:15;;;;;;;10.48;7.90;;;;;;;4.05;55.72;102666.03;5108543;28;20031;-80
2022/03/07 11:10:45;;;;;;;10.00;7.95;;;;;;;4.14;57.27;102671.81;5093985;28;20523;-80